Time;durP1;ratioP1;P1;durP2;ratioP2;P2;SDS_P1;SDS_P2;PMS_P1;PMS_P2;Temp;Humidity;BMP_temperature;BMP_pressure;BME280_temperature;BME280_humidity;BME280_pressure;Samples;Min_cycle;Max_cycle;Signal;HPM_P1;HPM_P2
2021/04/19 00:00:25;;;;;;;17.77;4.20;;;19.20;99.90;;;;;;4971605;28;20193;-87
2021/04/19 00:02:53;;;;;;;16.93;3.57;;;19.20;99.90;;;;;;4963398;28;20661;-87
2021/04/19 00:05:23;;;;;;;15.30;3.67;;;19.20;99.90;;;;;;4972978;28;20208;-87
2021/04/19 00:07:58;;;;;;;16.43;3.47;;;19.20;99.90;;;;;;4970025;28;20555;-87
2021/04/19 00:10:25;;;;;;;14.33;3.67;;;19.20;99.90;;;;;;4988527;28;20186;-88
2021/04/19 00:12:54;;;;;;;12.37;3.47;;;19.20;99.90;;;;;;4985815;28;20185;-87
2021/04/19 00:15:29;;;;;;;10.87;3.60;;;19.20;99.90;;;;;;4967322;28;20215;-87
2021/04/19 00:18:02;;;;;;;13.00;3.43;;;19.20;99.90;;;;;;4972014;28;20305;-87
2021/04/19 00:20:37;;;;;;;16.23;4.13;;;19.10;99.90;;;;;;4971149;28;20204;-88
2021/04/19 00:23:09;;;;;;;15.97;3.33;;;19.00;99.90;;;;;;4987261;28;20213;-88
2021/04/19 00:25:37;;;;;;;19.23;3.40;;;19.00;99.90;;;;;;4971512;28;20239;-87
2021/04/19 00:28:08;;;;;;;19.73;4.20;;;19.00;99.90;;;;;;4971600;28;20201;-87
2021/04/19 00:30:36;;;;;;;11.77;3.50;;;19.10;99.90;;;;;;4987243;28;20218;-89
2021/04/19 00:33:04;;;;;;;10.40;3.40;;;19.30;99.90;;;;;;4962240;28;20540;-87
2021/04/19 00:35:47;;;;;;;18.27;3.53;;;19.30;99.90;;;;;;4966786;28;20214;-87
2021/04/19 00:38:13;;;;;;;20.30;3.70;;;19.20;99.90;;;;;;5006023;28;20216;-87
2021/04/19 00:40:55;;;;;;;15.10;3.40;;;19.20;99.90;;;;;;4985909;28;20181;-88
2021/04/19 00:43:23;;;;;;;18.90;3.87;;;19.20;99.90;;;;;;5003506;28;20192;-87
2021/04/19 00:46:03;;;;;;;16.87;3.70;;;19.10;99.90;;;;;;4984677;28;20232;-87
2021/04/19 00:48:41;;;;;;;13.40;3.60;;;19.00;99.90;;;;;;4990708;28;20527;-88
2021/04/19 00:51:08;;;;;;;14.67;3.63;;;18.90;99.90;;;;;;4966888;28;20190;-87
2021/04/19 00:53:37;;;;;;;14.83;3.80;;;18.90;99.90;;;;;;4984827;28;20185;-87
2021/04/19 00:56:05;;;;;;;16.27;3.73;;;18.90;99.90;;;;;;4988030;28;20217;-87
2021/04/19 00:58:36;;;;;;;11.83;3.47;;;19.10;99.90;;;;;;4980371;28;20542;-88
2021/04/19 01:01:05;;;;;;;20.97;3.20;;;19.00;99.90;;;;;;4968536;28;20229;-87
2021/04/19 01:03:32;;;;;;;14.70;3.57;;;18.90;99.90;;;;;;4976328;28;20209;-87
2021/04/19 01:05:59;;;;;;;14.63;3.67;;;18.90;99.90;;;;;;5006501;28;20197;-90
2021/04/19 01:08:25;;;;;;;14.17;3.70;;;18.80;99.90;;;;;;4972026;28;20854;-87
2021/04/19 01:10:52;;;;;;;17.77;4.03;;;18.70;99.90;;;;;;4994406;28;20464;-87
2021/04/19 01:13:18;;;;;;;10.17;3.53;;;18.60;99.90;;;;;;4970363;28;20201;-87
2021/04/19 01:15:45;;;;;;;13.17;3.40;;;18.60;99.90;;;;;;4972590;28;20263;-86
2021/04/19 01:18:15;;;;;;;18.23;3.70;;;18.80;99.90;;;;;;4971646;28;20209;-86
2021/04/19 01:20:47;;;;;;;11.43;3.70;;;18.90;99.90;;;;;;4988444;28;20282;-88
2021/04/19 01:23:15;;;;;;;13.67;3.73;;;18.90;99.90;;;;;;5001301;28;20224;-87
2021/04/19 01:25:44;;;;;;;12.00;3.43;;;19.00;99.90;;;;;;4975517;28;20217;-87
2021/04/19 01:28:14;;;;;;;19.47;4.03;;;18.90;99.90;;;;;;4972226;28;20567;-87
2021/04/19 01:30:47;;;;;;;20.83;4.00;;;18.80;99.90;;;;;;4976372;28;20861;-86
2021/04/19 01:33:17;;;;;;;13.67;4.27;;;18.60;99.90;;;;;;4988206;28;20194;-87
2021/04/19 01:35:55;;;;;;;15.27;3.53;;;18.50;99.90;;;;;;4978650;28;20221;-87
2021/04/19 01:38:24;;;;;;;17.90;4.13;;;18.50;99.90;;;;;;4992373;28;20226;-87
2021/04/19 01:40:54;;;;;;;17.63;3.50;;;18.60;99.90;;;;;;4977033;28;20216;-88
2021/04/19 01:43:22;;;;;;;12.13;3.50;;;18.60;99.90;;;;;;4985499;28;20210;-87
2021/04/19 01:45:55;;;;;;;11.47;3.63;;;18.70;99.90;;;;;;4970746;28;20205;-86
2021/04/19 01:48:26;;;;;;;15.70;3.77;;;18.70;99.90;;;;;;4991192;28;20926;-85
2021/04/19 01:50:57;;;;;;;15.80;3.47;;;18.90;99.90;;;;;;4979171;28;20224;-86
2021/04/19 01:53:31;;;;;;;16.27;3.67;;;18.90;99.90;;;;;;4965919;28;20200;-87
2021/04/19 01:55:57;;;;;;;22.90;3.77;;;18.90;99.90;;;;;;4976819;28;20925;-87
2021/04/19 01:58:26;;;;;;;16.07;3.70;;;19.00;99.90;;;;;;4971755;28;20240;-86
2021/04/19 02:01:04;;;;;;;17.20;4.53;;;18.90;99.90;;;;;;4985807;28;20655;-87
2021/04/19 02:03:53;;;;;;;13.67;3.33;;;18.80;99.90;;;;;;4988934;28;20185;-87
2021/04/19 02:06:59;;;;;;;12.73;3.43;;;18.70;99.90;;;;;;4969831;28;20200;-86
2021/04/19 02:09:41;;;;;;;16.60;4.53;;;18.60;99.90;;;;;;4975070;28;20217;-86
2021/04/19 02:12:35;;;;;;;16.67;3.90;;;18.60;99.90;;;;;;4989766;28;20197;-86
2021/04/19 02:15:20;;;;;;;16.07;4.20;;;18.60;99.90;;;;;;4973589;28;20239;-88
2021/04/19 02:18:23;;;;;;;14.23;3.73;;;18.60;99.90;;;;;;4976471;28;20700;-87
2021/04/19 02:21:08;;;;;;;18.73;3.77;;;18.50;99.90;;;;;;5009729;28;20283;-86
2021/04/19 02:23:45;;;;;;;11.70;3.43;;;18.50;99.90;;;;;;4975365;28;20182;-88
2021/04/19 02:26:29;;;;;;;15.87;3.33;;;18.60;99.90;;;;;;4979203;28;20206;-85
2021/04/19 02:29:12;;;;;;;17.77;3.60;;;18.40;99.90;;;;;;4976438;28;20296;-87
2021/04/19 02:31:51;;;;;;;19.93;3.43;;;18.40;99.90;;;;;;4986083;28;20376;-87
2021/04/19 02:34:20;;;;;;;22.90;3.73;;;18.40;99.90;;;;;;5001973;28;20245;-86
2021/04/19 02:36:54;;;;;;;12.77;3.40;;;18.40;99.90;;;;;;4974965;28;20267;-87
2021/04/19 02:39:26;;;;;;;16.90;3.50;;;18.40;99.90;;;;;;4997080;28;20697;-87
2021/04/19 02:41:56;;;;;;;13.57;3.07;;;18.60;99.90;;;;;;4976218;28;20185;-85
2021/04/19 02:44:24;;;;;;;14.47;3.47;;;18.60;99.90;;;;;;4986853;28;20674;-85
2021/04/19 02:46:54;;;;;;;17.87;3.33;;;18.70;99.90;;;;;;4990261;28;20224;-85
2021/04/19 02:49:39;;;;;;;21.57;4.03;;;18.70;99.90;;;;;;4982350;28;20237;-85
2021/04/19 02:52:08;;;;;;;13.43;3.53;;;18.80;99.90;;;;;;4972702;28;20189;-86
2021/04/19 02:54:40;;;;;;;16.23;4.10;;;18.90;99.90;;;;;;4972633;28;20247;-87
2021/04/19 02:57:51;;;;;;;15.50;2.90;;;18.80;99.90;;;;;;4973411;28;20285;-87
2021/04/19 03:00:23;;;;;;;13.87;3.40;;;18.70;99.90;;;;;;4963863;28;20774;-86
2021/04/19 03:02:53;;;;;;;15.90;2.80;;;18.60;99.90;;;;;;4966871;28;20212;-88
2021/04/19 03:05:20;;;;;;;9.40;3.13;;;18.50;99.90;;;;;;4997684;28;20193;-87
2021/04/19 03:07:57;;;;;;;13.93;3.10;;;18.40;99.90;;;;;;4969035;28;20551;-88
2021/04/19 03:10:24;;;;;;;14.30;3.47;;;18.20;99.90;;;;;;4974083;28;20207;-88
2021/04/19 03:12:57;;;;;;;15.60;3.37;;;18.10;99.90;;;;;;4974863;28;20190;-86
2021/04/19 03:15:35;;;;;;;12.73;2.93;;;18.10;99.90;;;;;;4971521;28;20217;-86
2021/04/19 03:18:06;;;;;;;14.13;3.43;;;18.20;99.90;;;;;;4970803;28;20272;-86
2021/04/19 03:21:15;;;;;;;19.07;3.27;;;18.40;99.90;;;;;;4971028;28;20197;-86
2021/04/19 03:23:49;;;;;;;14.23;3.37;;;18.60;99.90;;;;;;4981659;28;20634;-86
2021/04/19 03:26:25;;;;;;;14.97;3.17;;;19.00;99.90;;;;;;4985887;28;20209;-86
2021/04/19 03:28:54;;;;;;;15.23;3.60;;;19.20;99.90;;;;;;4968162;28;20646;-86
2021/04/19 03:31:49;;;;;;;16.27;3.90;;;19.20;99.90;;;;;;4972271;28;20197;-88
2021/04/19 03:34:27;;;;;;;16.50;3.67;;;19.10;99.90;;;;;;4972514;28;20193;-88
2021/04/19 03:37:11;;;;;;;14.80;3.57;;;19.10;99.90;;;;;;4970428;28;20212;-83
2021/04/19 03:39:39;;;;;;;12.60;3.60;;;19.00;99.90;;;;;;4972309;28;20190;-86
2021/04/19 03:42:09;;;;;;;15.90;3.63;;;19.10;99.90;;;;;;4971164;28;20189;-87
2021/04/19 03:44:42;;;;;;;21.57;3.80;;;19.00;99.90;;;;;;4974536;28;20189;-85
2021/04/19 03:47:11;;;;;;;17.93;3.67;;;19.00;99.90;;;;;;4968409;28;20197;-84
2021/04/19 03:49:53;;;;;;;21.73;3.63;;;19.10;99.90;;;;;;4985676;28;20194;-86
2021/04/19 03:52:33;;;;;;;17.93;3.50;;;19.30;99.90;;;;;;4985666;28;20189;-86
2021/04/19 03:55:09;;;;;;;9.77;3.07;;;19.50;99.90;;;;;;4971892;28;20189;-87
2021/04/19 03:57:47;;;;;;;12.30;2.77;;;19.50;99.90;;;;;;4966171;28;20651;-87
2021/04/19 04:00:20;;;;;;;16.93;3.50;;;19.40;99.90;;;;;;4984108;28;20197;-87
2021/04/19 04:02:56;;;;;;;14.67;3.23;;;19.50;99.90;;;;;;4969601;28;20224;-88
2021/04/19 04:05:34;;;;;;;12.37;3.40;;;19.50;99.90;;;;;;4965596;28;20209;-87
2021/04/19 04:08:06;;;;;;;14.33;3.10;;;19.40;99.90;;;;;;4989731;28;20208;-87
2021/04/19 04:10:34;;;;;;;13.57;2.90;;;19.40;99.90;;;;;;4969776;28;20244;-86
2021/04/19 04:13:01;;;;;;;12.93;3.00;;;19.50;99.90;;;;;;4987245;28;20285;-87
2021/04/19 04:15:28;;;;;;;18.23;3.63;;;19.40;99.90;;;;;;4988432;28;20212;-87
2021/04/19 04:17:55;;;;;;;20.27;3.10;;;19.40;99.90;;;;;;4963982;28;20228;-87
2021/04/19 04:20:21;;;;;;;12.77;3.13;;;19.50;99.90;;;;;;4972773;28;20666;-88
2021/04/19 04:22:49;;;;;;;22.10;3.73;;;19.60;99.90;;;;;;4987017;28;20182;-88
2021/04/19 04:25:17;;;;;;;16.53;3.37;;;19.70;99.90;;;;;;4989403;28;20189;-87
2021/04/19 04:27:44;;;;;;;14.67;3.67;;;19.70;99.90;;;;;;4981991;28;20193;-87
2021/04/19 04:30:11;;;;;;;17.73;3.80;;;19.70;99.90;;;;;;4992064;28;20190;-87
2021/04/19 04:32:38;;;;;;;12.93;3.30;;;19.70;99.90;;;;;;4990779;28;20182;-87
2021/04/19 04:35:07;;;;;;;15.00;3.60;;;19.70;99.90;;;;;;4982988;28;20303;-86
2021/04/19 04:37:34;;;;;;;18.87;3.47;;;19.70;99.90;;;;;;4978601;28;20189;-87
2021/04/19 04:40:01;;;;;;;21.63;3.43;;;19.70;99.90;;;;;;4997811;28;20248;-87
2021/04/19 04:42:32;;;;;;;18.97;3.53;;;19.80;99.90;;;;;;4973389;28;20185;-87
2021/04/19 04:45:00;;;;;;;17.10;3.20;;;19.90;99.90;;;;;;4976269;28;20186;-87
2021/04/19 04:47:59;;;;;;;14.33;3.20;;;20.50;99.90;;;;;;4990388;28;20256;-87
2021/04/19 04:51:17;;;;;;;12.40;3.17;;;21.30;99.90;;;;;;4971276;28;20186;-85
2021/04/19 04:54:01;;;;;;;13.87;2.77;;;22.20;99.90;;;;;;4960693;28;20200;-88
2021/04/19 04:56:35;;;;;;;16.60;2.87;;;22.50;99.90;;;;;;4969873;28;20686;-86
2021/04/19 04:59:38;;;;;;;20.53;3.67;;;22.80;99.90;;;;;;5011779;28;20190;-86
2021/04/19 05:02:31;;;;;;;10.00;2.87;;;23.00;99.90;;;;;;4980953;28;20201;-89
2021/04/19 05:05:13;;;;;;;16.90;2.83;;;22.90;99.90;;;;;;5007162;28;20197;-85
2021/04/19 05:08:38;;;;;;;13.00;3.30;;;22.30;99.90;;;;;;4980291;28;20267;-87
2021/04/19 05:10:51;;;;;;;15.60;3.17;;;22.40;99.90;;;;;;4990209;28;20197;-85
2021/04/19 05:14:22;;;;;;;12.03;2.60;;;22.20;99.90;;;;;;4990002;28;20192;-87
2021/04/19 05:17:19;;;;;;;14.90;3.60;;;22.00;99.90;;;;;;4987758;28;20287;-89
2021/04/19 05:19:57;;;;;;;20.43;4.53;;;22.30;99.90;;;;;;4998842;28;20201;-83
2021/04/19 05:22:50;;;;;;;21.63;3.50;;;23.10;99.90;;;;;;4995492;28;20205;-86
2021/04/19 05:25:22;;;;;;;22.35;3.50;;;24.30;99.70;;;;;;4996579;28;20189;-87
2021/04/19 05:28:21;;;;;;;27.23;3.17;;;24.10;98.90;;;;;;4998655;28;20224;-85
2021/04/19 05:31:41;;;;;;;;;;;;;;;;;;;;;
2021/04/19 05:34:09;;;;;;;18.63;3.53;;;24.40;99.30;;;;;;4995712;28;20201;-87
2021/04/19 05:36:37;;;;;;;20.45;4.38;;;24.00;99.90;;;;;;4970956;28;20212;-90
2021/04/19 05:39:06;;;;;;;22.00;3.42;;;23.50;99.90;;;;;;4972192;28;20213;-88
2021/04/19 05:41:34;;;;;;;21.08;3.78;;;23.40;99.90;;;;;;4995079;28;20204;-88
2021/04/19 05:44:02;;;;;;;23.25;4.15;;;23.80;99.90;;;;;;4968491;28;20450;-90
2021/04/19 05:46:29;;;;;;;21.95;4.00;;;23.70;99.90;;;;;;4971466;28;20673;-87
2021/04/19 05:48:56;;;;;;;17.10;3.42;;;23.50;99.90;;;;;;4973726;28;20223;-89
2021/04/19 05:51:34;;;;;;;24.53;3.83;;;23.40;99.90;;;;;;4992101;28;20241;-89
2021/04/19 05:54:02;;;;;;;20.67;4.47;;;23.10;99.90;;;;;;4991377;28;20658;-90
2021/04/19 05:57:13;;;;;;;21.83;4.13;;;23.00;99.90;;;;;;4971896;28;21039;-89
2021/04/19 05:59:55;;;;;;;14.80;4.17;;;22.70;99.90;;;;;;4947670;28;20292;-88
2021/04/19 06:02:44;;;;;;;16.57;4.10;;;22.60;99.90;;;;;;4966702;28;20193;-88
2021/04/19 06:05:32;;;;;;;13.80;4.10;;;22.60;99.90;;;;;;4990621;28;20194;-88
2021/04/19 06:08:21;;;;;;;14.43;3.87;;;22.60;99.90;;;;;;4986494;28;20194;-87
2021/04/19 06:10:57;;;;;;;22.57;3.53;;;22.60;99.90;;;;;;4971962;28;20208;-87
2021/04/19 06:13:27;;;;;;;16.17;4.63;;;22.70;99.90;;;;;;4974147;28;20196;-89
2021/04/19 06:16:00;;;;;;;19.43;3.70;;;22.70;99.90;;;;;;4974899;28;20213;-91
2021/04/19 06:18:48;;;;;;;13.97;4.07;;;23.00;99.90;;;;;;4973997;28;20301;-88
2021/04/19 06:22:16;;;;;;;26.37;4.10;;;22.80;99.90;;;;;;5010172;28;20661;-87
2021/04/19 06:25:09;;;;;;;22.47;3.63;;;22.90;99.90;;;;;;5002942;28;20288;-88
2021/04/19 06:27:44;;;;;;;37.30;4.95;;;22.90;99.90;;;;;;4961334;28;20209;-89
2021/04/19 06:30:42;;;;;;;26.10;4.43;;;23.80;99.90;;;;;;4979664;28;20239;-86
2021/04/19 06:33:52;;;;;;;28.33;4.95;;;24.30;99.90;;;;;;4980124;28;20185;-87
2021/04/19 06:36:20;;;;;;;32.33;4.25;;;24.60;99.90;;;;;;4988953;28;20976;-85
2021/04/19 06:38:46;;;;;;;35.45;4.95;;;25.00;99.90;;;;;;4991427;28;20181;-87
2021/04/19 06:41:14;;;;;;;25.30;4.05;;;26.00;99.90;;;;;;4989038;28;21147;-87
2021/04/19 06:44:00;;;;;;;26.55;4.22;;;25.80;99.90;;;;;;4973616;28;20651;-87
2021/04/19 06:46:36;;;;;;;19.58;3.97;;;25.60;99.90;;;;;;4976311;28;20190;-89
2021/04/19 06:49:07;;;;;;;22.23;4.18;;;25.20;99.90;;;;;;5011916;28;20212;-94
2021/04/19 06:51:36;;;;;;;21.17;4.43;;;24.40;99.90;;;;;;4991313;28;20195;-87
2021/04/19 06:54:05;;;;;;;20.13;4.13;;;24.90;99.90;;;;;;4987218;28;20263;-89
2021/04/19 06:56:41;;;;;;;23.70;4.57;;;24.70;99.90;;;;;;4981820;28;20301;-88
2021/04/19 06:59:16;;;;;;;25.77;5.10;;;24.50;99.90;;;;;;4974458;28;20279;-89
2021/04/19 07:01:47;;;;;;;18.93;3.53;;;24.30;99.90;;;;;;4976748;28;20191;-88
2021/04/19 07:04:24;;;;;;;17.52;3.92;;;24.30;99.90;;;;;;4986529;28;20277;-87
2021/04/19 07:06:58;;;;;;;20.83;4.38;;;24.20;99.90;;;;;;4988253;28;20904;-88
2021/04/19 07:09:29;;;;;;;20.00;3.70;;;24.20;99.90;;;;;;4975100;28;20931;-88
2021/04/19 07:15:44;;;;;;;17.67;4.47;;;24.00;99.90;;;;;;4984893;28;20217;-88
2021/04/19 07:18:17;;;;;;;22.73;4.60;;;24.00;99.90;;;;;;4969684;28;20221;-88
2021/04/19 07:20:45;;;;;;;22.98;5.03;;;24.10;99.90;;;;;;4966546;28;20186;-85
2021/04/19 07:23:14;;;;;;;28.90;4.45;;;24.10;99.90;;;;;;4972680;28;20241;-86
2021/04/19 07:25:47;;;;;;;17.02;4.10;;;24.50;99.90;;;;;;4972073;28;20268;-87
2021/04/19 07:28:26;;;;;;;19.85;3.58;;;24.50;99.90;;;;;;4988663;28;20190;-87
2021/04/19 07:31:00;;;;;;;20.25;3.75;;;24.60;99.90;;;;;;4977070;28;20185;-88
2021/04/19 07:33:40;;;;;;;28.02;4.32;;;24.50;99.90;;;;;;4969342;28;20200;-89
2021/04/19 07:36:34;;;;;;;30.42;5.60;;;24.60;99.90;;;;;;4972015;28;20711;-88
2021/04/19 07:39:15;;;;;;;23.35;4.32;;;24.70;99.90;;;;;;4990571;28;20213;-89
2021/04/19 07:41:58;;;;;;;17.90;4.43;;;24.70;99.90;;;;;;4971298;28;20615;-88
2021/04/19 07:44:47;;;;;;;24.77;4.57;;;24.60;99.90;;;;;;4973160;28;20194;-89
2021/04/19 07:47:33;;;;;;;26.02;5.05;;;24.40;99.90;;;;;;4988316;28;20192;-88
2021/04/19 07:50:12;;;;;;;31.25;5.00;;;24.50;99.90;;;;;;4975349;28;20188;-88
2021/04/19 07:53:02;;;;;;;25.15;5.10;;;24.60;99.90;;;;;;4973592;28;20197;-88
2021/04/19 07:55:34;;;;;;;23.40;4.55;;;24.60;99.90;;;;;;4998326;28;20285;-88
2021/04/19 07:58:03;;;;;;;24.88;4.47;;;24.50;99.90;;;;;;4995426;28;20190;-90
2021/04/19 08:00:36;;;;;;;21.50;4.47;;;24.50;99.90;;;;;;4968654;28;20186;-90
2021/04/19 08:03:16;;;;;;;28.05;5.10;;;24.80;99.90;;;;;;4975535;28;20186;-89
2021/04/19 08:05:51;;;;;;;28.33;5.03;;;25.20;99.90;;;;;;4970111;28;20198;-87
2021/04/19 08:08:35;;;;;;;19.02;4.35;;;25.20;99.90;;;;;;4993590;28;20188;-90
2021/04/19 08:11:11;;;;;;;18.65;4.50;;;25.30;99.90;;;;;;4972502;28;20261;-89
2021/04/19 08:13:48;;;;;;;28.05;4.57;;;25.00;99.90;;;;;;4987338;28;20189;-88
2021/04/19 08:16:20;;;;;;;17.30;3.90;;;25.10;99.90;;;;;;5009073;28;20209;-89
2021/04/19 08:19:02;;;;;;;25.00;4.60;;;25.30;99.90;;;;;;4976066;28;20944;-88
2021/04/19 08:21:32;;;;;;;22.83;4.82;;;25.60;99.90;;;;;;4987323;28;20275;-89
2021/04/19 08:24:17;;;;;;;26.77;4.50;;;25.70;99.90;;;;;;4972018;28;20185;-89
2021/04/19 08:27:22;;;;;;;33.67;5.32;;;25.40;99.90;;;;;;4981116;28;20186;-88
2021/04/19 08:29:49;;;;;;;19.85;4.40;;;25.90;99.90;;;;;;4939692;28;20189;-86
2021/04/19 08:32:22;;;;;;;18.65;4.78;;;26.10;99.90;;;;;;4975317;28;20224;-90
2021/04/19 08:34:51;;;;;;;19.05;4.90;;;26.00;99.90;;;;;;5000583;28;20240;-91
2021/04/19 08:37:30;;;;;;;21.77;4.43;;;25.70;99.90;;;;;;4975011;28;20272;-90
2021/04/19 08:40:01;;;;;;;23.02;4.65;;;25.70;99.90;;;;;;4976061;28;20177;-90
2021/04/19 08:42:34;;;;;;;26.15;4.97;;;25.50;99.90;;;;;;4993416;28;20181;-90
2021/04/19 08:45:09;;;;;;;18.15;4.53;;;25.40;99.90;;;;;;4992780;28;20244;-88
2021/04/19 08:47:44;;;;;;;27.27;4.72;;;25.90;99.90;;;;;;4990753;28;20186;-87
2021/04/19 08:50:30;;;;;;;35.53;4.70;;;26.00;99.90;;;;;;4905777;29;20229;-89
2021/04/19 08:52:58;;;;;;;24.55;4.57;;;25.80;99.90;;;;;;4882987;29;20676;-89
2021/04/19 08:55:26;;;;;;;27.38;9.20;;;25.60;99.90;;;;;;4902832;29;20282;-89
2021/04/19 08:58:09;;;;;;;31.25;12.15;;;25.60;99.90;;;;;;4883581;29;20192;-88
2021/04/19 09:00:49;;;;;;;23.85;6.20;;;25.40;99.90;;;;;;4888820;29;20203;-86
2021/04/19 09:03:39;;;;;;;23.85;3.97;;;25.50;99.90;;;;;;4889594;29;20203;-85
2021/04/19 09:06:18;;;;;;;16.83;4.10;;;25.60;99.90;;;;;;4899960;29;20247;-88
2021/04/19 09:08:47;;;;;;;25.65;6.07;;;25.60;99.90;;;;;;4885715;29;20195;-91
2021/04/19 09:11:34;;;;;;;18.80;5.07;;;25.80;99.90;;;;;;4885033;29;20188;-93
2021/04/19 09:14:16;;;;;;;23.45;4.93;;;25.70;99.90;;;;;;4881018;29;20192;-88
2021/04/19 09:16:57;;;;;;;25.17;4.97;;;25.50;99.90;;;;;;4900325;29;20209;-88
2021/04/19 09:19:39;;;;;;;21.40;5.05;;;25.40;99.90;;;;;;4886249;29;20192;-86
2021/04/19 09:22:26;;;;;;;18.33;4.30;;;25.40;99.90;;;;;;4881573;29;20235;-86
2021/04/19 09:25:30;;;;;;;16.65;4.15;;;25.30;99.90;;;;;;4904618;29;20197;-88
2021/04/19 09:28:28;;;;;;;17.45;3.70;;;25.60;99.90;;;;;;4934862;28;20190;-90
2021/04/19 09:31:48;;;;;;;15.15;3.72;;;25.40;99.90;;;;;;4976100;28;20209;-90
2021/04/19 09:34:53;;;;;;;23.52;4.45;;;25.80;99.90;;;;;;4971320;28;20476;-90
2021/04/19 09:38:02;;;;;;;15.80;4.18;;;26.00;99.90;;;;;;5000442;28;20215;-90
2021/04/19 09:41:17;;;;;;;14.00;4.57;;;25.90;99.90;;;;;;4995779;28;20178;-89
2021/04/19 09:43:59;;;;;;;22.15;4.90;;;25.90;99.90;;;;;;4980818;28;20349;-90
2021/04/19 09:46:34;;;;;;;21.10;5.07;;;26.20;99.90;;;;;;4979988;28;20190;-90
2021/04/19 09:49:07;;;;;;;19.50;4.78;;;26.30;99.90;;;;;;4989821;28;20239;-90
2021/04/19 09:51:44;;;;;;;17.85;5.28;;;26.20;99.90;;;;;;4996414;28;20201;-90
2021/04/19 09:54:26;;;;;;;18.58;4.55;;;26.00;99.90;;;;;;4996726;28;20582;-90
2021/04/19 09:57:07;;;;;;;18.13;5.10;;;25.90;99.90;;;;;;4995692;28;20249;-92
2021/04/19 09:59:51;;;;;;;27.35;4.63;;;25.80;99.90;;;;;;4994753;28;20178;-88
2021/04/19 10:02:31;;;;;;;25.15;5.32;;;25.90;99.90;;;;;;4993716;28;20182;-89
2021/04/19 10:05:34;;;;;;;20.77;4.63;;;25.80;99.90;;;;;;4979858;28;20235;-89
2021/04/19 10:08:10;;;;;;;17.40;5.07;;;25.80;99.90;;;;;;5000208;28;20186;-89
2021/04/19 10:10:59;;;;;;;22.15;4.72;;;25.90;99.90;;;;;;5002811;28;20192;-88
2021/04/19 10:13:39;;;;;;;21.88;5.00;;;26.10;99.90;;;;;;5008967;28;20268;-89
2021/04/19 10:16:28;;;;;;;38.20;6.50;;;26.40;99.90;;;;;;4989998;28;20267;-88
2021/04/19 10:19:04;;;;;;;28.80;5.35;;;26.60;99.90;;;;;;5011172;28;20264;-91
2021/04/19 10:22:12;;;;;;;24.73;5.45;;;26.80;99.90;;;;;;4974863;28;20670;-90
2021/04/19 10:25:01;;;;;;;23.42;5.13;;;26.70;99.90;;;;;;4982116;28;20664;-89
2021/04/19 10:27:40;;;;;;;13.63;4.78;;;26.60;99.90;;;;;;4999869;28;20630;-90
2021/04/19 10:30:35;;;;;;;21.13;5.13;;;26.70;99.90;;;;;;4981104;28;20229;-89
2021/04/19 10:33:04;;;;;;;25.73;5.00;;;26.70;99.90;;;;;;4977822;28;20214;-90
2021/04/19 10:36:11;;;;;;;27.02;4.60;;;26.90;99.90;;;;;;4974457;28;20213;-90
2021/04/19 10:38:55;;;;;;;24.30;5.15;;;27.20;99.90;;;;;;4997521;28;20185;-90
2021/04/19 10:41:57;;;;;;;25.70;4.53;;;27.50;99.90;;;;;;4981239;28;20196;-93
2021/04/19 10:44:56;;;;;;;18.05;4.95;;;27.60;99.90;;;;;;4989726;28;20269;-93
2021/04/19 10:47:36;;;;;;;19.98;4.65;;;27.40;99.90;;;;;;4996037;28;20193;-93
2021/04/19 10:50:31;;;;;;;23.65;4.70;;;27.00;99.90;;;;;;4996617;28;20207;-91
2021/04/19 10:53:06;;;;;;;23.77;4.60;;;27.20;99.90;;;;;;4988246;28;20268;-91
2021/04/19 10:56:08;;;;;;;26.65;4.95;;;27.20;99.90;;;;;;4981275;28;20213;-89
2021/04/19 10:58:45;;;;;;;22.73;4.97;;;27.20;99.90;;;;;;4998078;28;20192;-88
2021/04/19 11:01:37;;;;;;;27.85;4.68;;;27.00;99.90;;;;;;4984328;28;20244;-86
2021/04/19 11:04:10;;;;;;;17.80;4.97;;;26.70;99.90;;;;;;4973935;28;20236;-87
2021/04/19 11:06:56;;;;;;;16.95;5.28;;;26.90;99.90;;;;;;4994149;28;20201;-88
2021/04/19 11:09:34;;;;;;;19.98;4.72;;;26.80;99.90;;;;;;4976814;28;20186;-89
2021/04/19 11:12:27;;;;;;;21.83;4.53;;;26.80;99.90;;;;;;4994360;28;20205;-89
2021/04/19 11:15:07;;;;;;;26.95;5.10;;;26.70;99.90;;;;;;4970771;28;20678;-89
2021/04/19 11:17:55;;;;;;;20.20;5.20;;;27.10;99.90;;;;;;4978528;28;20220;-89
2021/04/19 11:20:50;;;;;;;27.67;5.15;;;27.20;99.90;;;;;;4980681;28;20188;-89
2021/04/19 11:23:36;;;;;;;23.73;6.03;;;27.40;99.90;;;;;;4984724;28;20265;-89
2021/04/19 11:26:23;;;;;;;23.55;5.90;;;27.40;99.90;;;;;;4985500;28;20257;-89
2021/04/19 11:28:59;;;;;;;19.83;5.45;;;27.30;99.90;;;;;;4989521;28;20216;-88
2021/04/19 11:32:29;;;;;;;26.88;5.90;;;27.00;99.90;;;;;;4994118;28;20204;-88
2021/04/19 11:35:08;;;;;;;17.83;4.93;;;26.70;99.90;;;;;;4904933;29;20212;-86
2021/04/19 11:38:02;;;;;;;34.70;5.90;;;26.70;99.90;;;;;;4977881;28;20193;-89
2021/04/19 11:40:46;;;;;;;20.92;5.15;;;26.60;99.90;;;;;;4975045;28;20290;-87
2021/04/19 11:43:30;;;;;;;31.00;5.78;;;;;;;;;;5001600;28;20193;-88
2021/04/19 11:46:59;;;;;;;26.55;5.88;;;26.70;99.90;;;;;;4973675;28;20182;-89
2021/04/19 11:49:39;;;;;;;39.22;6.38;;;26.70;99.90;;;;;;4993125;28;20271;-85
2021/04/19 11:53:00;;;;;;;43.60;6.55;;;27.10;99.90;;;;;;4975710;28;20191;-88
2021/04/19 11:55:31;;;;;;;32.72;6.07;;;27.10;99.90;;;;;;4974802;28;20216;-86
2021/04/19 11:58:22;;;;;;;54.00;6.93;;;27.40;99.90;;;;;;4989466;28;20265;-87
2021/04/19 12:01:00;;;;;;;33.60;5.60;;;27.60;99.90;;;;;;5003388;28;20316;-85
2021/04/19 12:03:33;;;;;;;32.22;5.75;;;27.90;99.90;;;;;;4976200;28;20192;-86
2021/04/19 12:06:13;;;;;;;50.13;6.32;;;28.20;99.90;;;;;;4974245;28;20267;-85
2021/04/19 12:08:56;;;;;;;44.13;7.07;;;28.30;99.90;;;;;;4976464;28;20184;-87
2021/04/19 12:11:35;;;;;;;39.97;6.35;;;28.20;99.90;;;;;;4996059;28;20189;-88
2021/04/19 12:14:30;;;;;;;;;;;;;;;;;;;;;
2021/04/19 12:17:10;;;;;;;41.17;5.53;;;27.70;99.90;;;;;;4987304;28;20210;-87
2021/04/19 12:19:51;;;;;;;31.23;5.88;;;27.70;99.90;;;;;;4992038;28;20282;-87
2021/04/19 12:22:24;;;;;;;26.98;5.80;;;27.90;99.90;;;;;;4987828;28;20712;-91
2021/04/19 12:24:51;;;;;;;34.58;5.43;;;28.10;99.90;;;;;;4972399;28;20197;-89
2021/04/19 12:27:18;;;;;;;29.25;5.85;;;27.80;99.90;;;;;;4976618;28;20609;-87
2021/04/19 12:29:46;;;;;;;29.70;4.90;;;27.70;99.90;;;;;;5004358;28;20708;-90
2021/04/19 12:32:13;;;;;;;36.60;5.65;;;27.80;99.90;;;;;;4986808;28;20189;-88
2021/04/19 12:34:41;;;;;;;35.42;6.28;;;27.70;99.90;;;;;;4988694;28;20220;-89
2021/04/19 12:37:09;;;;;;;32.63;5.32;;;27.90;98.90;;;;;;4969955;28;20304;-89
2021/04/19 12:39:39;;;;;;;37.40;6.13;;;27.60;99.90;;;;;;4968333;28;20181;-89
2021/04/19 12:42:06;;;;;;;31.17;5.50;;;27.40;99.90;;;;;;4965387;28;20230;-88
2021/04/19 12:44:40;;;;;;;34.55;5.00;;;27.50;99.90;;;;;;5000869;28;20189;-86
2021/04/19 12:47:06;;;;;;;25.67;5.60;;;27.90;99.60;;;;;;4970825;28;20252;-89
2021/04/19 12:49:34;;;;;;;42.28;5.70;;;28.10;98.80;;;;;;4999684;28;20229;-89
2021/04/19 12:52:01;;;;;;;27.77;5.32;;;27.70;99.90;;;;;;4976446;28;20182;-86
2021/04/19 12:54:38;;;;;;;27.88;5.80;;;27.40;99.90;;;;;;4990519;28;20638;-89
2021/04/19 12:57:14;;;;;;;23.77;4.97;;;27.90;98.50;;;;;;4987984;28;20228;-90
2021/04/19 12:59:44;;;;;;;33.88;5.72;;;27.70;99.20;;;;;;4967803;28;20185;-89
2021/04/19 13:02:12;;;;;;;26.73;5.60;;;27.70;99.90;;;;;;4978388;28;20189;-88
2021/04/19 13:04:39;;;;;;;40.63;6.10;;;27.90;99.90;;;;;;4994938;28;20199;-89
2021/04/19 13:07:07;;;;;;;27.48;5.22;;;27.60;99.90;;;;;;4976388;28;20197;-89
2021/04/19 13:09:37;;;;;;;36.90;4.88;;;27.60;99.90;;;;;;4977736;28;20189;-88
2021/04/19 13:12:08;;;;;;;37.97;6.55;;;27.30;99.90;;;;;;4976221;28;20534;-86
2021/04/19 13:14:36;;;;;;;42.13;5.68;;;27.90;99.90;;;;;;4986844;28;20189;-87
2021/04/19 13:17:11;;;;;;;43.80;5.45;;;28.10;99.90;;;;;;4969790;28;20297;-89
2021/04/19 13:19:40;;;;;;;32.35;5.43;;;;;;;;;;4981232;28;20671;-88
2021/04/19 13:22:09;;;;;;;35.38;5.57;;;;;;;;;;4971677;28;20221;-86
2021/04/19 13:24:37;;;;;;;37.83;6.22;;;;;;;;;;4970635;28;21463;-87
2021/04/19 13:27:05;;;;;;;35.38;5.30;;;;;;;;;;4973925;28;20192;-88
2021/04/19 13:29:33;;;;;;;36.45;5.78;;;;;;;;;;4973193;28;20189;-90
2021/04/19 13:32:02;;;;;;;40.22;5.53;;;28.40;99.90;;;;;;4973348;28;20193;-86
2021/04/19 13:34:30;;;;;;;33.80;5.38;;;28.40;99.50;;;;;;4975313;28;20189;-85
2021/04/19 13:36:59;;;;;;;32.25;5.32;;;28.40;98.70;;;;;;4976231;28;20213;-87
2021/04/19 13:39:34;;;;;;;27.08;5.07;;;28.30;98.40;;;;;;4979858;28;20967;-89
2021/04/19 13:42:01;;;;;;;30.65;5.15;;;28.00;99.90;;;;;;4969939;28;20192;-88